^^
Your Local Weather - Clay, NY Station Historical Data
Daily Summary for March 29, 2017 Units:  Metric    English   Both
« Previous Day
Next Day »
Daily Weekly Monthly Yearly Custom
  High: Low: Average:
Temperature: 7.8 °C -1.4 °C 3.4 °C
Dew Point: 1.6 °C -4.6 °C -2.2 °C
Humidity: 92% 44% 69%
Wind Speed: 12.9km/h 0km/h 4.3km/h
Wind Gust: 22.5km/h - -
Wind- - West
Pressure: 1025.3 hPa 1018.5 hPa -
Precipitation: 0 mm    
Historical Graphs
 
 
Tabular Data for March 29, 2017
Time Temperature Dew Point Pressure Wind Wind Speed Wind Gust Humidity Rainfall Rate (Hourly) solar
00:04 3.9 °C 1.5 °C 1018.5 hPa Calm   1.6 km/h 84% 0 mm 0 W/m2
00:10 3.9 °C 1.6 °C 1018.5 hPa Calm     85% 0 mm 0 W/m2
00:16 3.8 °C 1.6 °C 1018.5 hPa Calm   1.6 km/h 85% 0 mm 0 W/m2
00:22 3.8 °C 1.5 °C 1018.5 hPa Calm   1.6 km/h 85% 0 mm 0 W/m2
00:28 3.8 °C 1.5 °C 1018.5 hPa NNW 1.6 km/h 1.6 km/h 85% 0 mm 0 W/m2
00:34 3.8 °C 1.5 °C 1018.8 hPa NNW 1.6 km/h 1.6 km/h 85% 0 mm 0 W/m2
00:40 3.8 °C 1.5 °C 1018.8 hPa Calm   1.6 km/h 85% 0 mm 0 W/m2
00:46 3.7 °C 1.4 °C 1018.8 hPa Calm   4.8 km/h 85% 0 mm 0 W/m2
00:52 3.7 °C 1.4 °C 1018.8 hPa NNW 1.6 km/h 1.6 km/h 85% 0 mm 0 W/m2
00:58 3.7 °C 1.4 °C 1018.8 hPa NNW 1.6 km/h 1.6 km/h 85% 0 mm 0 W/m2
01:04 3.7 °C 1.4 °C 1018.8 hPa NNW 1.6 km/h 3.2 km/h 85% 0 mm 0 W/m2
01:10 3.6 °C 1.3 °C 1018.8 hPa Calm     85% 0 mm 0 W/m2
01:16 3.6 °C 1.3 °C 1019.2 hPa Calm   1.6 km/h 85% 0 mm 0 W/m2
01:22 3.6 °C 1.3 °C 1018.8 hPa Calm     85% 0 mm 0 W/m2
01:28 3.6 °C 1.3 °C 1018.8 hPa Calm   3.2 km/h 85% 0 mm 0 W/m2
01:34 3.6 °C 1.3 °C 1019.2 hPa Calm   3.2 km/h 85% 0 mm 0 W/m2
01:40 3.6 °C 1.3 °C 1019.2 hPa NNW 1.6 km/h 1.6 km/h 85% 0 mm 0 W/m2
01:46 3.6 °C 1.3 °C 1019.2 hPa Calm   3.2 km/h 85% 0 mm 0 W/m2
01:52 3.6 °C 1.3 °C 1019.2 hPa Calm     85% 0 mm 0 W/m2
01:58 3.5 °C 1.2 °C 1019.2 hPa Calm   3.2 km/h 85% 0 mm 0 W/m2
02:04 3.5 °C 1.2 °C 1019.2 hPa Calm     85% 0 mm 0 W/m2
02:10 3.5 °C 1.2 °C 1019.2 hPa Calm   1.6 km/h 85% 0 mm 0 W/m2
02:16 3.4 °C 1.2 °C 1019.5 hPa Calm   1.6 km/h 85% 0 mm 0 W/m2
02:22 3.4 °C 1.2 °C 1019.2 hPa Calm   1.6 km/h 85% 0 mm 0 W/m2
02:28 3.4 °C 1.2 °C 1019.5 hPa Calm   1.6 km/h 85% 0 mm 0 W/m2
02:34 3.4 °C 1 °C 1019.2 hPa Calm     84% 0 mm 0 W/m2
02:40 3.4 °C 1 °C 1019.5 hPa Calm     84% 0 mm 0 W/m2
02:46 3.4 °C 1 °C 1019.5 hPa Calm     84% 0 mm 0 W/m2
02:52 3.4 °C 1 °C 1019.5 hPa Calm     84% 0 mm 0 W/m2
02:58 3.4 °C 1 °C 1019.5 hPa Calm     84% 0 mm 0 W/m2
03:04 3.4 °C 1 °C 1019.5 hPa Calm   3.2 km/h 84% 0 mm 0 W/m2
03:10 3.4 °C 0.9 °C 1019.5 hPa Calm     84% 0 mm 0 W/m2
03:16 3.4 °C 0.9 °C 1019.5 hPa Calm     84% 0 mm 0 W/m2
03:22 3.4 °C 0.9 °C 1019.5 hPa Calm     84% 0 mm 0 W/m2
03:28 3.3 °C 0.8 °C 1019.5 hPa Calm     84% 0 mm 0 W/m2
03:34 3.1 °C 0.6 °C 1019.5 hPa Calm     84% 0 mm 0 W/m2
03:40 2.8 °C 0.4 °C 1019.5 hPa Calm     84% 0 mm 0 W/m2
03:46 2.7 °C 0.2 °C 1019.5 hPa Calm     84% 0 mm 0 W/m2
03:52 2.4 °C 0 °C 1019.9 hPa Calm     84% 0 mm 0 W/m2
03:58 2.2 °C -0.1 °C 1019.9 hPa Calm     85% 0 mm 0 W/m2
04:04 2.1 °C -0.2 °C 1019.9 hPa Calm     85% 0 mm 0 W/m2
04:10 1.9 °C -0.2 °C 1019.9 hPa Calm     86% 0 mm 0 W/m2
04:16 1.8 °C -0.3 °C 1019.9 hPa Calm     86% 0 mm 0 W/m2
04:22 1.6 °C -0.5 °C 1019.9 hPa Calm     86% 0 mm 0 W/m2
04:28 1.4 °C -0.5 °C 1019.9 hPa Calm     87% 0 mm 0 W/m2
04:34 1.3 °C -0.6 °C 1019.9 hPa Calm     87% 0 mm 0 W/m2
04:40 1.2 °C -0.8 °C 1019.9 hPa Calm     87% 0 mm 0 W/m2
04:46 1 °C -0.8 °C 1020.2 hPa Calm     88% 0 mm 0 W/m2
04:52 0.9 °C -0.9 °C 1020.2 hPa Calm     88% 0 mm 0 W/m2
04:58 0.7 °C -1.1 °C 1020.2 hPa Calm     88% 0 mm 0 W/m2
05:04 0.6 °C -1.2 °C 1020.2 hPa Calm     88% 0 mm 0 W/m2
05:10 0.4 °C -1.4 °C 1020.5 hPa Calm     88% 0 mm 0 W/m2
05:12 0.4 °C -1.4 °C 1020.5 hPa Calm     88% 0 mm 0 W/m2
05:18 0.2 °C -1.6 °C 1020.5 hPa Calm     88% 0 mm 0 W/m2
05:24 0.1 °C -1.7 °C 1020.5 hPa Calm     88% 0 mm 0 W/m2
05:30 -0.1 °C -1.7 °C 1020.5 hPa Calm     89% 0 mm 0 W/m2
05:36 -0.1 °C -1.7 °C 1020.5 hPa Calm     89% 0 mm 0 W/m2
05:42 -0.1 °C -1.7 °C 1020.5 hPa Calm     89% 0 mm 0 W/m2
05:48 -0.2 °C -1.6 °C 1020.5 hPa Calm     90% 0 mm 0 W/m2
05:54 -0.3 °C -1.9 °C 1020.5 hPa Calm     89% 0 mm 0 W/m2
06:00 -0.4 °C -1.9 °C 1020.5 hPa Calm     90% 0 mm 0 W/m2
06:06 -0.4 °C -1.9 °C 1020.5 hPa Calm     90% 0 mm 0 W/m2
06:12 -0.6 °C -2.1 °C 1020.9 hPa Calm     90% 0 mm 0 W/m2
06:18 -0.8 °C -2.2 °C 1020.9 hPa Calm     90% 0 mm 0 W/m2
06:24 -0.9 °C -2.3 °C 1020.9 hPa Calm     90% 0 mm 0 W/m2
06:30 -1 °C -2.4 °C 1020.9 hPa Calm     90% 0 mm 0 W/m2
06:36 -1 °C -2.4 °C 1020.9 hPa Calm     90% 0 mm 0 W/m2
06:42 -0.8 °C -2.3 °C 1020.9 hPa Calm     90% 0 mm 0 W/m2
06:48 -0.9 °C -2.2 °C 1021.2 hPa Calm     91% 0 mm 0 W/m2
06:54 -0.9 °C -2.2 °C 1021.2 hPa Calm     91% 0 mm 5 W/m2
07:00 -0.9 °C -2.2 °C 1021.2 hPa Calm     91% 0 mm 9 W/m2
07:06 -1 °C -2.3 °C 1021.2 hPa Calm     91% 0 mm 12 W/m2
07:12 -1.1 °C -2.3 °C 1021.6 hPa Calm     91% 0 mm 16 W/m2
07:18 -1.1 °C -2.3 °C 1021.6 hPa Calm     91% 0 mm 19 W/m2
07:24 -1.1 °C -2.3 °C 1021.6 hPa Calm     91% 0 mm 23 W/m2
07:30 -1 °C -2.3 °C 1021.6 hPa Calm     91% 0 mm 28 W/m2
07:36 -0.8 °C -2.1 °C 1021.6 hPa Calm     91% 0 mm 37 W/m2
07:42 -0.5 °C -1.7 °C 1021.6 hPa Calm     92% 0 mm 47 W/m2
07:48 -0.1 °C -1.3 °C 1021.6 hPa Calm     92% 0 mm 88 W/m2
07:54 0.3 °C -0.9 °C 1021.9 hPa Calm   1.6 km/h 92% 0 mm 118 W/m2
08:00 0.6 °C -0.6 °C 1021.9 hPa Calm     92% 0 mm 141 W/m2
08:06 0.9 °C -0.2 °C 1021.9 hPa Calm   3.2 km/h 92% 0 mm 139 W/m2
08:12 1.3 °C 0.1 °C 1021.9 hPa NW 1.6 km/h 1.6 km/h 92% 0 mm 128 W/m2
08:18 1.6 °C 0.2 °C 1022.2 hPa NW 1.6 km/h 6.4 km/h 91% 0 mm 176 W/m2
08:24 1.8 °C 0.2 °C 1022.2 hPa NW 3.2 km/h 8 km/h 89% 0 mm 195 W/m2
08:30 2.1 °C 0 °C 1022.2 hPa NNE 6.4 km/h 6.4 km/h 86% 0 mm 141 W/m2
08:36 2.3 °C -0.2 °C 1022.2 hPa NNW 6.4 km/h 11.3 km/h 84% 0 mm 174 W/m2
08:42 2.4 °C -0.5 °C 1022.2 hPa NW 6.4 km/h 8 km/h 81% 0 mm 211 W/m2
08:48 2.7 °C -0.4 °C 1022.2 hPa NNW 6.4 km/h 8 km/h 80% 0 mm 169 W/m2
08:54 2.8 °C -0.4 °C 1022.2 hPa NW 6.4 km/h 11.3 km/h 79% 0 mm 195 W/m2
09:00 3.1 °C -0.2 °C 1022.2 hPa NNW 6.4 km/h 6.4 km/h 79% 0 mm 246 W/m2
09:06 3.3 °C -0.2 °C 1022.6 hPa NW 4.8 km/h 9.7 km/h 78% 0 mm 232 W/m2
09:12 3.4 °C -0.4 °C 1022.6 hPa North 6.4 km/h 12.9 km/h 76% 0 mm 253 W/m2
09:18 3.6 °C -0.2 °C 1022.6 hPa NW 6.4 km/h 12.9 km/h 76% 0 mm 227 W/m2
09:24 3.7 °C -0.3 °C 1022.6 hPa NNE 6.4 km/h 9.7 km/h 75% 0 mm 279 W/m2
09:30 3.9 °C -0.5 °C 1022.6 hPa NNW 8 km/h 8 km/h 73% 0 mm 302 W/m2
09:36 4 °C -0.8 °C 1022.6 hPa NW 9.7 km/h 11.3 km/h 71% 0 mm 311 W/m2
09:42 4.3 °C -0.5 °C 1022.6 hPa NNE 8 km/h 9.7 km/h 71% 0 mm 452 W/m2
09:48 4.7 °C -0.3 °C 1022.6 hPa NNW 6.4 km/h 11.3 km/h 70% 0 mm 510 W/m2
09:54 4.7 °C -0.9 °C 1022.9 hPa NNW 8 km/h 12.9 km/h 67% 0 mm 526 W/m2
10:00 5 °C -1.1 °C 1022.9 hPa NW 9.7 km/h 9.7 km/h 65% 0 mm 543 W/m2
10:06 5.2 °C -1.1 °C 1022.9 hPa NNW 9.7 km/h 9.7 km/h 64% 0 mm 561 W/m2
10:12 5.6 °C -0.7 °C 1022.9 hPa NNW 8 km/h 9.7 km/h 64% 0 mm 580 W/m2
10:18 5.8 °C -1.8 °C 1022.9 hPa North 8 km/h 9.7 km/h 58% 0 mm 598 W/m2
10:24 5.7 °C -2.4 °C 1022.9 hPa North 9.7 km/h 17.7 km/h 56% 0 mm 617 W/m2
10:30 5.8 °C -2.1 °C 1022.9 hPa North 9.7 km/h 9.7 km/h 57% 0 mm 629 W/m2
10:36 5.9 °C -2.9 °C 1022.6 hPa NNW 11.3 km/h 11.3 km/h 53% 0 mm 652 W/m2
10:42 6.5 °C -2.7 °C 1022.6 hPa North 8 km/h 9.7 km/h 52% 0 mm 661 W/m2
10:48 6.1 °C -2.8 °C 1022.6 hPa North 8 km/h 14.5 km/h 53% 0 mm 675 W/m2
10:54 6.6 °C -2.1 °C 1022.9 hPa NW 9.7 km/h 9.7 km/h 54% 0 mm 691 W/m2
11:00 6.8 °C -2.1 °C 1022.9 hPa NW 8 km/h 8 km/h 53% 0 mm 714 W/m2
11:06 6.9 °C -3.1 °C 1022.6 hPa North 8 km/h 19.3 km/h 49% 0 mm 712 W/m2
11:12 6.8 °C -2.7 °C 1022.6 hPa North 11.3 km/h 17.7 km/h 51% 0 mm 726 W/m2
11:18 6.7 °C -3.3 °C 1022.6 hPa NNW 11.3 km/h 17.7 km/h 49% 0 mm 754 W/m2
11:24 7 °C -3.3 °C 1022.6 hPa NNW 11.3 km/h 19.3 km/h 48% 0 mm 782 W/m2
11:30 7.4 °C -2.4 °C 1022.6 hPa NNW 11.3 km/h 11.3 km/h 50% 0 mm 765 W/m2
11:36 7.1 °C -2.9 °C 1022.6 hPa NNW 9.7 km/h 16.1 km/h 49% 0 mm 886 W/m2
11:42 7.2 °C -3.4 °C 1022.6 hPa NNW 9.7 km/h 12.9 km/h 47% 0 mm 886 W/m2
11:48 7.2 °C -2.1 °C 1022.6 hPa NNW 9.7 km/h 12.9 km/h 52% 0 mm 504 W/m2
11:54 7.1 °C -2.6 °C 1022.9 hPa NNW 8 km/h 12.9 km/h 50% 0 mm 719 W/m2
12:00 7.3 °C -2.2 °C 1023.2 hPa NNW 9.7 km/h 9.7 km/h 51% 0 mm 545 W/m2
12:06 7.4 °C -2.4 °C 1023.2 hPa NW 9.7 km/h 9.7 km/h 50% 0 mm 649 W/m2
12:12 7.3 °C -2.9 °C 1023.2 hPa NW 8 km/h 11.3 km/h 48% 0 mm 531 W/m2
12:18 7.2 °C -2.5 °C 1023.2 hPa NW 9.7 km/h 22.5 km/h 50% 0 mm 547 W/m2
12:24 6.9 °C -4.2 °C 1023.2 hPa NW 9.7 km/h 9.7 km/h 45% 0 mm 529 W/m2
12:30 7.2 °C -1.7 °C 1023.2 hPa NW 9.7 km/h 12.9 km/h 53% 0 mm 598 W/m2
12:36 7.2 °C -3.7 °C 1023.2 hPa North 9.7 km/h 14.5 km/h 46% 0 mm 621 W/m2
12:42 7.1 °C -3.2 °C 1023.2 hPa West 11.3 km/h 11.3 km/h 48% 0 mm 963 W/m2
12:48 7.3 °C -2.9 °C 1023.2 hPa NNW 9.7 km/h 16.1 km/h 48% 0 mm 452 W/m2
12:54 7.4 °C -3.4 °C 1023.2 hPa North 9.7 km/h 14.5 km/h 46% 0 mm 838 W/m2
13:00 7.3 °C -3.6 °C 1023.2 hPa NNE 9.7 km/h 11.3 km/h 46% 0 mm 700 W/m2
13:06 7.1 °C -3.4 °C 1023.2 hPa NNE 9.7 km/h 14.5 km/h 47% 0 mm 650 W/m2
13:12 7.3 °C -3.9 °C 1023.2 hPa NNW 11.3 km/h 12.9 km/h 45% 0 mm 469 W/m2
13:18 7.1 °C -4.1 °C 1023.2 hPa North 12.9 km/h 16.1 km/h 45% 0 mm 923 W/m2
13:24 7.2 °C -3.4 °C 1023.2 hPa NNE 12.9 km/h 16.1 km/h 47% 0 mm 831 W/m2
13:30 7.3 °C -3 °C 1023.2 hPa North 12.9 km/h 12.9 km/h 48% 0 mm 863 W/m2
13:36 7.1 °C -4.3 °C 1023.2 hPa NW 11.3 km/h 20.9 km/h 44% 0 mm 846 W/m2
13:42 7.3 °C -3.3 °C 1023.2 hPa WNW 11.3 km/h 12.9 km/h 47% 0 mm 868 W/m2
13:48 7.3 °C -3.3 °C 1023.2 hPa NW 9.7 km/h 17.7 km/h 47% 0 mm 763 W/m2
13:54 7.4 °C -3.5 °C 1023.2 hPa NNW 11.3 km/h 17.7 km/h 46% 0 mm 824 W/m2
14:00 7.2 °C -3.9 °C 1023.2 hPa North 11.3 km/h 12.9 km/h 45% 0 mm 833 W/m2
14:06 7.4 °C -2.9 °C 1023.2 hPa West 11.3 km/h 20.9 km/h 48% 0 mm 812 W/m2
14:12 7.6 °C -3.6 °C 1022.9 hPa NNW 9.7 km/h 9.7 km/h 45% 0 mm 868 W/m2
14:18 7.5 °C -2.3 °C 1022.9 hPa NNW 9.7 km/h 14.5 km/h 50% 0 mm 916 W/m2
14:26 7.1 °C -2.9 °C 1023.2 hPa WNW 12.9 km/h 16.1 km/h 49% 0 mm 427 W/m2
14:32 6.6 °C -3.7 °C 1022.9 hPa NNW 12.9 km/h 12.9 km/h 48% 0 mm 304 W/m2
14:38 7.5 °C -3.4 °C 1022.9 hPa North 11.3 km/h 16.1 km/h 46% 0 mm 798 W/m2
14:44 7.6 °C -3.3 °C 1022.9 hPa NW 11.3 km/h 14.5 km/h 46% 0 mm 786 W/m2
14:50 7.4 °C -2.6 °C 1023.2 hPa North 9.7 km/h 17.7 km/h 49% 0 mm 828 W/m2
14:56 7.3 °C -3.3 °C 1023.2 hPa NW 11.3 km/h 17.7 km/h 47% 0 mm 768 W/m2
15:02 7.1 °C -3.2 °C 1023.2 hPa North 11.3 km/h 11.3 km/h 48% 0 mm 693 W/m2
15:08 7 °C -3.8 °C 1023.2 hPa NNE 12.9 km/h 16.1 km/h 46% 0 mm 846 W/m2
15:14 7.5 °C -2.3 °C 1023.2 hPa NNW 12.9 km/h 12.9 km/h 50% 0 mm 893 W/m2
15:20 7.8 °C -2.6 °C 1022.9 hPa NNW 11.3 km/h 11.3 km/h 48% 0 mm 867 W/m2
15:26 7.2 °C -3.4 °C 1022.9 hPa WNW 11.3 km/h 16.1 km/h 47% 0 mm 807 W/m2
15:32 6.9 °C -3.9 °C 1022.9 hPa NNW 11.3 km/h 11.3 km/h 46% 0 mm 306 W/m2
15:38 6.7 °C -3 °C 1022.9 hPa NW 9.7 km/h 11.3 km/h 50% 0 mm 301 W/m2
15:44 6.7 °C -3.1 °C 1022.9 hPa NW 8 km/h 8 km/h 50% 0 mm 360 W/m2
15:50 6.7 °C -3.3 °C 1023.2 hPa NNW 8 km/h 8 km/h 49% 0 mm 413 W/m2
15:56 7.2 °C -2.8 °C 1022.9 hPa NW 6.4 km/h 9.7 km/h 49% 0 mm 334 W/m2
16:03 6.7 °C -2.7 °C 1023.2 hPa NW 8 km/h 11.3 km/h 51% 0 mm 265 W/m2
16:08 6.6 °C -3.2 °C 1022.9 hPa NW 9.7 km/h 17.7 km/h 50% 0 mm 204 W/m2
16:14 6.2 °C -3.5 °C 1023.2 hPa NW 9.7 km/h 20.9 km/h 50% 0 mm 165 W/m2
16:20 6.1 °C -3.1 °C 1023.2 hPa NW 11.3 km/h 14.5 km/h 52% 0 mm 232 W/m2
16:26 6.1 °C -3.6 °C 1023.2 hPa NNE 9.7 km/h 22.5 km/h 50% 0 mm 230 W/m2
16:32 5.9 °C -3.7 °C 1023.2 hPa North 11.3 km/h 17.7 km/h 50% 0 mm 190 W/m2
16:38 5.8 °C -3.8 °C 1023.2 hPa NNW 11.3 km/h 17.7 km/h 50% 0 mm 179 W/m2
16:44 5.8 °C -3.6 °C 1023.2 hPa NW 11.3 km/h 14.5 km/h 51% 0 mm 171 W/m2
16:50 5.7 °C -3.7 °C 1023.2 hPa NNW 11.3 km/h 16.1 km/h 51% 0 mm 209 W/m2
16:56 5.6 °C -3.5 °C 1023.6 hPa NNW 11.3 km/h 16.1 km/h 52% 0 mm 174 W/m2
17:02 5.7 °C -3.4 °C 1023.6 hPa NW 9.7 km/h 12.9 km/h 52% 0 mm 197 W/m2
17:08 5.6 °C -3.8 °C 1023.6 hPa NNW 11.3 km/h 14.5 km/h 51% 0 mm 160 W/m2
17:14 5.4 °C -3.7 °C 1023.6 hPa NNW 11.3 km/h 11.3 km/h 52% 0 mm 148 W/m2
17:20 5.3 °C -3.7 °C 1023.9 hPa NNW 11.3 km/h 16.1 km/h 52% 0 mm 137 W/m2
17:26 5.4 °C -3.7 °C 1023.9 hPa NNW 9.7 km/h 16.1 km/h 52% 0 mm 148 W/m2
17:32 5.3 °C -3.5 °C 1023.9 hPa NW 9.7 km/h 14.5 km/h 53% 0 mm 144 W/m2
17:38 5.3 °C -3.6 °C 1023.9 hPa NW 8 km/h 14.5 km/h 53% 0 mm 139 W/m2
17:44 5.3 °C -3.6 °C 1023.9 hPa NNW 8 km/h 9.7 km/h 53% 0 mm 199 W/m2
17:50 5.2 °C -4.2 °C 1023.9 hPa North 8 km/h 8 km/h 51% 0 mm 113 W/m2
17:56 5.1 °C -3.7 °C 1023.9 hPa NW 8 km/h 12.9 km/h 53% 0 mm 114 W/m2
18:03 5.1 °C -3.7 °C 1024.3 hPa North 8 km/h 9.7 km/h 53% 0 mm 116 W/m2
18:08 5 °C -4.3 °C 1024.3 hPa NNW 9.7 km/h 17.7 km/h 51% 0 mm 111 W/m2
18:14 4.9 °C -4.1 °C 1024.3 hPa NNW 9.7 km/h 11.3 km/h 52% 0 mm 81 W/m2
18:20 4.8 °C -3.7 °C 1024.3 hPa NW 8 km/h 9.7 km/h 54% 0 mm 77 W/m2
18:26 4.8 °C -4.2 °C 1024.6 hPa NW 8 km/h 9.7 km/h 52% 0 mm 60 W/m2
18:32 4.7 °C -4.3 °C 1024.6 hPa NNE 8 km/h 16.1 km/h 52% 0 mm 54 W/m2
18:38 4.6 °C -4.4 °C 1024.6 hPa NNW 9.7 km/h 16.1 km/h 52% 0 mm 39 W/m2
18:44 4.6 °C -4.2 °C 1024.6 hPa NW 8 km/h 9.7 km/h 53% 0 mm 30 W/m2
18:50 4.4 °C -4.4 °C 1024.9 hPa North 6.4 km/h 6.4 km/h 53% 0 mm 33 W/m2
18:56 4.3 °C -4.2 °C 1024.9 hPa North 4.8 km/h 6.4 km/h 54% 0 mm 28 W/m2
19:02 4.2 °C -4.3 °C 1024.9 hPa NW 3.2 km/h 8 km/h 54% 0 mm 19 W/m2
19:08 4.1 °C -4.4 °C 1024.9 hPa NW 4.8 km/h 9.7 km/h 54% 0 mm 14 W/m2
19:14 4 °C -4.2 °C 1024.9 hPa NNW 4.8 km/h 6.4 km/h 55% 0 mm 9 W/m2
19:20 3.8 °C -4.4 °C 1024.9 hPa NW 4.8 km/h 4.8 km/h 55% 0 mm 5 W/m2
19:26 3.8 °C -4.2 °C 1024.9 hPa NNW 4.8 km/h 14.5 km/h 56% 0 mm 0 W/m2
19:32 3.6 °C -4.4 °C 1024.9 hPa NW 3.2 km/h 3.2 km/h 56% 0 mm 0 W/m2
19:38 3.5 °C -4.2 °C 1024.9 hPa NNW 3.2 km/h 4.8 km/h 57% 0 mm 0 W/m2
19:44 3.4 °C -4.3 °C 1024.9 hPa NNW 3.2 km/h 3.2 km/h 57% 0 mm 0 W/m2
19:50 3.3 °C -4.4 °C 1025.3 hPa NNW 1.6 km/h 1.6 km/h 57% 0 mm 0 W/m2
19:56 3.2 °C -4.6 °C 1025.3 hPa NNW 1.6 km/h 1.6 km/h 57% 0 mm 0 W/m2
20:02 3.1 °C -4.2 °C 1024.9 hPa Calm     59% 0 mm 0 W/m2
20:08 2.9 °C -4.3 °C 1024.9 hPa Calm     59% 0 mm 0 W/m2
20:14 2.8 °C -4.2 °C 1024.9 hPa Calm     60% 0 mm 0 W/m2
20:20 2.6 °C -4.4 °C 1025.3 hPa Calm     60% 0 mm 0 W/m2
20:26 2.4 °C -4.3 °C 1025.3 hPa Calm     61% 0 mm 0 W/m2
20:32 2.3 °C -4.2 °C 1025.3 hPa Calm     62% 0 mm 0 W/m2
20:38 2.3 °C -4.3 °C 1025.3 hPa Calm     62% 0 mm 0 W/m2
20:44 2.2 °C -4.2 °C 1025.3 hPa Calm     63% 0 mm 0 W/m2
20:50 2.1 °C -4.1 °C 1025.3 hPa Calm     64% 0 mm 0 W/m2
20:56 1.9 °C -4.2 °C 1025.3 hPa Calm     64% 0 mm 0 W/m2
21:02 1.7 °C -4.2 °C 1025.3 hPa Calm     65% 0 mm 0 W/m2
21:08 1.6 °C -4.3 °C 1025.3 hPa Calm     65% 0 mm 0 W/m2
21:14 1.4 °C -4 °C 1025.3 hPa Calm     67% 0 mm 0 W/m2
21:20 1.3 °C -4 °C 1025.3 hPa Calm     68% 0 mm 0 W/m2
21:26 1.1 °C -4.2 °C 1025.3 hPa Calm     68% 0 mm 0 W/m2
21:32 0.9 °C -4.2 °C 1025.3 hPa Calm     69% 0 mm 0 W/m2
21:38 0.7 °C -4.2 °C 1025.3 hPa Calm     70% 0 mm 0 W/m2
21:44 0.6 °C -4.1 °C 1025.3 hPa Calm     71% 0 mm 0 W/m2
21:50 0.4 °C -4.3 °C 1025.3 hPa Calm     71% 0 mm 0 W/m2
21:56 0.2 °C -4.2 °C 1025.3 hPa Calm     72% 0 mm 0 W/m2
22:02 0.2 °C -4.1 °C 1025.3 hPa Calm     73% 0 mm 0 W/m2
22:08 0.1 °C -4.1 °C 1025.3 hPa Calm     74% 0 mm 0 W/m2
22:14 0 °C -3.9 °C 1025.3 hPa Calm     75% 0 mm 0 W/m2
22:20 -0.2 °C -4.1 °C 1024.9 hPa Calm     75% 0 mm 0 W/m2
22:26 -0.3 °C -4 °C 1024.9 hPa Calm     76% 0 mm 0 W/m2
22:32 -0.3 °C -4.1 °C 1024.9 hPa Calm     76% 0 mm 0 W/m2
22:38 -0.5 °C -4.1 °C 1024.9 hPa Calm     77% 0 mm 0 W/m2
22:44 -0.7 °C -4.2 °C 1024.9 hPa Calm     77% 0 mm 0 W/m2
22:50 -0.8 °C -3.9 °C 1024.9 hPa Calm     79% 0 mm 0 W/m2
22:56 -0.8 °C -3.8 °C 1024.9 hPa Calm     80% 0 mm 0 W/m2
23:02 -0.9 °C -3.7 °C 1024.9 hPa Calm     81% 0 mm 0 W/m2
23:08 -0.9 °C -3.8 °C 1024.9 hPa Calm     81% 0 mm 0 W/m2
23:14 -1.1 °C -3.7 °C 1024.9 hPa Calm     82% 0 mm 0 W/m2
23:20 -1.2 °C -3.8 °C 1024.9 hPa Calm     82% 0 mm 0 W/m2
23:26 -1.2 °C -3.9 °C 1024.9 hPa Calm     82% 0 mm 0 W/m2
23:32 -1.3 °C -4 °C 1024.9 hPa Calm     82% 0 mm 0 W/m2
23:38 -1.4 °C -3.9 °C 1024.9 hPa Calm     83% 0 mm 0 W/m2
23:44 -1.3 °C -3.8 °C 1024.6 hPa Calm     83% 0 mm 0 W/m2
23:50 -1.3 °C -3.7 °C 1024.6 hPa Calm     84% 0 mm 0 W/m2
23:56 -1.4 °C -3.7 °C 1024.6 hPa Calm     84% 0 mm 0 W/m2
Country Meadow, Clay, NY, USA
Compliments of Weather Underground - 2 mb